Time;durP1;ratioP1;P1;durP2;ratioP2;P2;SDS_P1;SDS_P2;PMS_P1;PMS_P2;Temp;Humidity;BMP_temperature;BMP_pressure;BME280_temperature;BME280_humidity;BME280_pressure;Samples;Min_cycle;Max_cycle;Signal;HPM_P1;HPM_P2
2022/02/05 00:01:11;;;;;;;13.43;8.90;;;;;;;2.16;100.00;98383.34;5029459;28;20041;-57
2022/02/05 00:03:44;;;;;;;14.27;8.05;;;;;;;2.35;100.00;98378.44;5030736;28;20098;-59
2022/02/05 00:06:11;;;;;;;14.83;8.37;;;;;;;2.34;100.00;98386.84;5029829;28;20032;-60
2022/02/05 00:43:08;;;;;;;12.43;8.10;;;;;;;2.75;100.00;98393.13;5032124;28;20091;-60
2022/02/05 00:45:38;;;;;;;13.47;7.77;;;;;;;2.79;100.00;98394.00;5030298;28;20032;-59
2022/02/05 00:48:05;;;;;;;15.07;8.00;;;;;;;2.92;100.00;98395.78;5028592;28;20056;-58
2022/02/05 00:50:33;;;;;;;13.37;7.07;;;;;;;2.92;100.00;98400.88;5028996;28;20025;-60
2022/02/05 00:53:07;;;;;;;12.30;7.70;;;;;;;2.87;100.00;98400.81;5032577;28;20079;-60
2022/02/05 00:55:36;;;;;;;13.07;7.43;;;;;;;2.87;100.00;98405.03;5031249;28;20039;-60
2022/02/05 00:58:06;;;;;;;14.00;7.63;;;;;;;2.95;100.00;98409.31;5030486;28;20040;-63
2022/02/05 01:00:34;;;;;;;12.70;7.90;;;;;;;3.00;100.00;98407.69;5033317;28;20038;-60
2022/02/05 01:03:00;;;;;;;15.97;8.10;;;;;;;2.95;100.00;98411.84;5033198;28;20811;-60
2022/02/05 01:05:26;;;;;;;13.50;7.67;;;;;;;2.92;100.00;98401.72;5030070;28;20017;-60
2022/02/05 01:07:52;;;;;;;10.07;7.10;;;;;;;2.98;100.00;98405.94;5028466;28;20075;-58
2022/02/05 01:10:18;;;;;;;10.63;6.97;;;;;;;3.13;100.00;98413.69;5030678;28;20041;-60
2022/02/05 01:12:50;;;;;;;10.00;6.87;;;;;;;3.09;100.00;98407.75;5031007;28;20029;-59
2022/02/05 01:15:19;;;;;;;11.77;7.70;;;;;;;3.14;100.00;98416.19;5028355;28;20107;-59
2022/02/05 01:17:51;;;;;;;12.03;7.73;;;;;;;3.18;100.00;98404.44;5028663;28;20097;-59
2022/02/05 01:23:05;;;;;;;9.90;7.23;;;;;;;3.17;100.00;98407.78;5029043;28;20591;-60
2022/02/05 01:25:36;;;;;;;10.80;7.23;;;;;;;3.16;100.00;98403.56;5026724;28;20114;-60
2022/02/05 01:28:10;;;;;;;12.60;7.67;;;;;;;3.10;100.00;98396.75;5019950;28;20131;-58
2022/02/05 01:30:39;;;;;;;9.90;7.80;;;;;;;3.16;100.00;98385.81;5029797;28;20124;-60
2022/02/05 01:35:56;;;;;;;10.43;8.00;;;;;;;3.24;100.00;98399.38;5027353;28;20045;-58
2022/02/05 01:52:11;;;;;;;9.83;6.63;;;;;;;3.69;100.00;98386.94;5035330;28;20128;-59
2022/02/05 01:55:05;;;;;;;9.40;5.87;;;;;;;3.71;100.00;98376.81;5035580;28;20527;-60
2022/02/05 01:57:55;;;;;;;7.97;5.70;;;;;;;3.98;100.00;98366.78;5033772;28;20065;-60
2022/02/05 02:05:50;;;;;;;4.37;3.20;;;;;;;5.22;100.00;98357.50;4972250;28;20047;-62
2022/02/05 02:11:30;;;;;;;4.10;1.83;;;;;;;7.09;100.00;98373.38;4974475;28;20040;-59
2022/02/05 02:16:35;;;;;;;3.73;2.07;;;;;;;7.64;100.00;98352.41;4973257;28;19913;-60
2022/02/05 02:27:19;;;;;;;2.03;1.63;;;;;;;8.13;100.00;98356.03;4939171;28;20334;-57
2022/02/05 02:29:58;;;;;;;1.43;1.10;;;;;;;8.21;99.41;98372.09;4939815;28;20532;-63
2022/02/05 02:32:25;;;;;;;1.37;1.13;;;;;;;8.19;99.48;98383.19;4936197;28;20094;-62
2022/02/05 02:34:54;;;;;;;1.20;1.10;;;;;;;8.23;99.76;98390.78;4937329;28;20050;-60
2022/02/05 02:37:28;;;;;;;1.00;1.00;;;;;;;8.44;97.27;98389.69;4939774;29;20035;-60
2022/02/05 02:42:20;;;;;;;1.27;0.90;;;;;;;8.47;97.50;98388.78;4962309;28;20136;-61
2022/02/05 02:44:45;;;;;;;1.10;1.00;;;;;;;8.42;98.06;98393.97;4980369;28;20392;-59
2022/02/05 02:47:10;;;;;;;1.20;1.10;;;;;;;8.43;98.70;98402.47;4981876;28;20073;-62
2022/02/05 02:50:14;;;;;;;0.87;0.87;;;;;;;8.46;98.00;98397.31;4980552;28;20161;-59
2022/02/05 02:57:59;;;;;;;1.20;1.10;;;;;;;8.40;100.00;98417.84;4996074;28;20650;-60
2022/02/05 03:00:25;;;;;;;1.90;1.10;;;;;;;8.27;100.00;98425.63;5028931;28;20135;-58
2022/02/05 03:02:52;;;;;;;1.73;1.63;;;;;;;8.18;100.00;98423.22;5031446;28;20048;-62
2022/02/05 03:05:18;;;;;;;1.70;1.03;;;;;;;8.02;100.00;98424.25;5033680;28;20467;-61
2022/02/05 03:07:43;;;;;;;0.70;0.70;;;;;;;8.05;100.00;98425.94;5034896;28;20033;-64
2022/02/05 03:10:09;;;;;;;7.93;7.50;;;;;;;7.96;100.00;98424.34;5031770;28;20030;-61
2022/02/05 03:12:35;;;;;;;129.63;122.57;;;;;;;7.90;100.00;98431.19;5012565;28;20029;-60
2022/02/05 03:15:03;;;;;;;132.20;124.87;;;;;;;7.77;100.00;98431.34;5032569;28;21094;-60
2022/02/05 03:17:36;;;;;;;39.83;38.07;;;;;;;7.71;100.00;98438.22;5031357;28;20060;-60
2022/02/05 03:20:02;;;;;;;84.80;81.07;;;;;;;7.42;100.00;98430.88;5029832;28;20061;-61
2022/02/05 03:22:28;;;;;;;55.23;52.97;;;;;;;7.24;100.00;98434.44;5034152;28;20086;-58
2022/02/05 03:24:53;;;;;;;14.33;13.50;;;;;;;7.09;100.00;98428.63;5033974;28;20037;-60
2022/02/05 03:27:20;;;;;;;1.60;1.30;;;;;;;6.98;100.00;98441.47;5031451;28;20724;-59
2022/02/05 03:29:48;;;;;;;48.70;46.53;;;;;;;7.00;100.00;98441.47;5031097;28;20593;-60
2022/02/05 03:32:19;;;;;;;68.33;65.13;;;;;;;6.98;100.00;98444.00;5030856;28;20029;-60
2022/02/05 03:34:45;;;;;;;20.70;19.70;;;;;;;6.98;100.00;98458.44;5031409;28;20018;-58
2022/02/05 03:37:10;;;;;;;14.27;13.50;;;;;;;6.93;100.00;98457.63;5032364;28;20038;-60
2022/02/05 03:39:36;;;;;;;19.23;18.07;;;;;;;6.87;100.00;98459.38;5030122;28;20074;-58
2022/02/05 03:42:02;;;;;;;9.37;8.73;;;;;;;6.78;100.00;98461.16;5032446;28;20029;-60
2022/02/05 03:44:27;;;;;;;9.60;8.93;;;;;;;6.81;100.00;98466.22;5031236;28;20041;-59
2022/02/05 03:46:54;;;;;;;14.30;13.57;;;;;;;6.99;100.00;98467.78;5027596;28;20396;-60
2022/02/05 03:49:21;;;;;;;9.30;8.77;;;;;;;6.87;100.00;98450.91;5011722;28;20044;-60
2022/02/05 03:51:47;;;;;;;5.97;5.63;;;;;;;6.82;100.00;98466.22;5031509;28;20872;-59
2022/02/05 03:54:14;;;;;;;6.63;6.20;;;;;;;6.72;100.00;98473.91;5032242;28;20025;-60
2022/02/05 03:56:40;;;;;;;5.67;5.17;;;;;;;6.67;100.00;98484.13;5014806;28;20128;-58
2022/02/05 03:59:06;;;;;;;3.97;3.60;;;;;;;6.53;100.00;98477.44;5030132;28;20041;-58
2022/02/05 04:01:31;;;;;;;5.43;4.90;;;;;;;6.52;100.00;98475.75;5031563;28;20562;-59
2022/02/05 04:03:57;;;;;;;4.90;4.50;;;;;;;6.37;100.00;98474.09;5030072;28;20061;-59
2022/02/05 04:06:22;;;;;;;3.20;2.83;;;;;;;6.44;100.00;98488.53;5028976;28;20033;-59
2022/02/05 04:08:50;;;;;;;4.70;2.83;;;;;;;6.40;100.00;98490.25;5031029;28;20032;-57
2022/02/05 04:11:46;;;;;;;3.30;3.00;;;;;;;6.42;100.00;98508.03;5032149;28;20088;-58
2022/02/05 04:16:55;;;;;;;4.43;3.63;;;;;;;6.54;100.00;98484.19;5028693;28;20688;-59
2022/02/05 04:19:20;;;;;;;5.27;3.97;;;;;;;6.48;100.00;98502.94;5030850;28;20144;-60
2022/02/05 04:21:47;;;;;;;3.10;2.43;;;;;;;6.47;100.00;98523.28;5032931;28;20033;-60
2022/02/05 04:24:12;;;;;;;3.40;2.90;;;;;;;6.42;100.00;98523.31;5029972;28;20037;-59
2022/02/05 04:26:38;;;;;;;3.93;3.53;;;;;;;6.31;100.00;98530.16;5027860;28;20025;-58
2022/02/05 04:29:10;;;;;;;5.73;3.10;;;;;;;6.27;100.00;98520.84;5032156;28;20047;-60
2022/02/05 04:31:37;;;;;;;2.23;1.90;;;;;;;6.44;100.00;98539.44;5030848;28;20066;-58
2022/02/05 04:34:04;;;;;;;3.40;2.73;;;;;;;6.62;100.00;98558.91;5029484;28;20075;-59
2022/02/05 04:36:30;;;;;;;3.30;2.83;;;;;;;6.85;100.00;98552.81;5026988;28;20041;-58
2022/02/05 04:39:00;;;;;;;5.30;3.00;;;;;;;6.81;100.00;98561.34;5033730;28;20571;-58
2022/02/05 04:41:34;;;;;;;5.63;3.60;;;;;;;6.81;100.00;98579.19;5032743;28;20829;-60
2022/02/05 04:44:12;;;;;;;2.93;2.23;;;;;;;6.94;100.00;98574.00;5029426;28;20052;-59
2022/02/05 04:57:23;;;;;;;2.97;2.37;;;;;;;7.05;100.00;98574.78;5029066;28;20067;-60
2022/02/05 05:05:24;;;;;;;3.20;2.47;;;;;;;7.09;100.00;98601.94;5028522;28;20072;-59
2022/02/05 05:13:32;;;;;;;1.87;1.77;;;;;;;7.23;100.00;98648.63;5026710;28;20037;-59
2022/02/05 05:21:09;;;;;;;1.23;1.10;;;;;;;7.16;100.00;98650.38;5030523;28;20580;-59
2022/02/05 05:23:34;;;;;;;0.93;0.93;;;;;;;7.14;98.75;98682.66;5028227;28;20087;-59
2022/02/05 05:26:00;;;;;;;2.10;1.13;;;;;;;7.12;96.60;98694.56;5031731;28;20116;-61
2022/02/05 05:28:25;;;;;;;0.80;0.80;;;;;;;7.10;94.57;98703.91;5036511;28;20032;-60
2022/02/05 05:30:50;;;;;;;0.90;0.90;;;;;;;7.10;93.67;98706.47;5031319;28;20810;-60
2022/02/05 05:33:16;;;;;;;1.00;1.00;;;;;;;7.10;93.47;98698.81;5027907;28;20064;-61
2022/02/05 05:35:41;;;;;;;1.00;0.90;;;;;;;7.05;93.96;98708.19;5029245;28;20028;-61
2022/02/05 05:38:07;;;;;;;1.50;1.20;;;;;;;7.06;94.25;98703.94;5033302;28;20479;-59
2022/02/05 05:40:34;;;;;;;0.70;0.70;;;;;;;7.05;95.24;98723.47;5029162;28;20099;-59
2022/02/05 05:43:04;;;;;;;1.50;0.90;;;;;;;6.91;97.36;98725.25;5026668;28;20143;-57
2022/02/05 05:48:13;;;;;;;0.80;0.70;;;;;;;7.05;89.71;98732.81;5031375;28;20115;-60
2022/02/05 05:53:12;;;;;;;0.90;0.90;;;;;;;6.91;91.08;98724.38;5033286;28;20033;-57
2022/02/05 05:55:46;;;;;;;1.00;0.90;;;;;;;6.91;90.24;98735.44;5031798;28;20177;-60
2022/02/05 05:58:13;;;;;;;1.03;0.80;;;;;;;6.98;88.23;98728.59;5031230;28;20677;-60
2022/02/05 06:00:39;;;;;;;0.97;0.90;;;;;;;6.93;88.58;98755.78;5027925;28;20044;-60
2022/02/05 06:03:05;;;;;;;0.90;0.90;;;;;;;6.93;88.42;98766.84;5027118;28;20037;-59
2022/02/05 06:05:31;;;;;;;1.47;0.87;;;;;;;6.82;90.79;98776.22;5029754;28;20663;-60
2022/02/05 06:07:56;;;;;;;1.33;1.00;;;;;;;6.84;90.29;98784.69;5028013;28;20048;-60
2022/02/05 06:10:22;;;;;;;0.70;0.70;;;;;;;6.75;92.04;98800.00;5026342;28;20033;-60
2022/02/05 06:12:47;;;;;;;1.03;0.90;;;;;;;6.64;92.66;98791.53;5029686;28;20495;-60
2022/02/05 06:15:13;;;;;;;0.80;0.80;;;;;;;6.61;92.36;98800.03;5031654;28;20120;-59
2022/02/05 06:17:39;;;;;;;0.77;0.77;;;;;;;6.56;92.41;98801.72;5030974;28;20037;-58
2022/02/05 06:20:07;;;;;;;0.80;0.80;;;;;;;6.49;92.80;98810.22;5026810;28;20779;-60
2022/02/05 06:22:32;;;;;;;1.97;1.80;;;;;;;6.39;93.58;98811.91;5031559;28;20044;-60
2022/02/05 06:24:58;;;;;;;1.10;0.80;;;;;;;6.30;94.37;98821.22;5027005;28;20029;-59
2022/02/05 06:27:23;;;;;;;0.90;0.90;;;;;;;6.27;94.92;98818.69;5031740;28;20029;-59
2022/02/05 06:29:49;;;;;;;0.63;0.63;;;;;;;6.26;95.29;98833.09;5030768;28;20036;-59
2022/02/05 06:32:17;;;;;;;0.70;0.70;;;;;;;6.14;95.48;98839.88;5036279;28;20029;-59
2022/02/05 06:34:43;;;;;;;0.80;0.70;;;;;;;6.10;96.08;98856.00;5035608;28;20029;-60
2022/02/05 06:37:08;;;;;;;0.80;0.80;;;;;;;6.16;95.49;98859.38;5033034;28;20055;-60
2022/02/05 06:39:33;;;;;;;0.83;0.83;;;;;;;6.05;95.99;98868.69;5034101;28;20091;-59
2022/02/05 06:41:59;;;;;;;2.07;0.87;;;;;;;6.00;95.79;98866.97;5037009;28;20033;-59
2022/02/05 06:44:24;;;;;;;2.80;2.00;;;;;;;5.95;96.37;98867.81;5038795;28;20061;-57
2022/02/05 06:46:50;;;;;;;0.60;0.60;;;;;;;5.97;95.03;98878.00;5032629;28;20083;-57
2022/02/05 06:49:15;;;;;;;0.57;0.57;;;;;;;5.87;96.61;98889.00;5036029;28;20079;-58
2022/02/05 06:51:40;;;;;;;1.57;0.87;;;;;;;5.88;95.50;98891.56;5036877;28;20112;-57
2022/02/05 06:54:06;;;;;;;0.70;0.70;;;;;;;5.83;95.49;98902.50;5042183;28;20021;-57
2022/02/05 06:56:31;;;;;;;0.83;0.80;;;;;;;5.86;94.43;98905.94;5035692;28;20056;-57
2022/02/05 06:58:57;;;;;;;1.20;0.90;;;;;;;5.75;96.42;98914.34;5036863;28;20025;-57
2022/02/05 07:01:22;;;;;;;0.80;0.80;;;;;;;5.69;97.21;98924.47;5036535;28;20100;-57
2022/02/05 07:03:48;;;;;;;1.00;1.00;;;;;;;5.68;95.57;98923.66;5037215;28;20508;-58
2022/02/05 07:06:13;;;;;;;0.90;0.90;;;;;;;5.66;95.81;98920.25;5032051;28;20467;-58
2022/02/05 07:08:41;;;;;;;1.17;1.07;;;;;;;5.59;97.22;98926.16;5034934;28;20468;-58
2022/02/05 07:11:07;;;;;;;1.30;1.30;;;;;;;5.56;98.98;98940.53;5034119;28;20056;-58
2022/02/05 07:13:33;;;;;;;1.00;0.90;;;;;;;5.52;98.60;98947.28;5038008;28;20025;-57
2022/02/05 07:16:35;;;;;;;1.00;1.00;;;;;;;5.41;100.00;98931.97;5032190;28;20040;-57
2022/02/05 07:21:20;;;;;;;1.53;0.90;;;;;;;5.48;99.62;98932.84;5019998;28;20037;-58
2022/02/05 07:23:57;;;;;;;1.23;1.10;;;;;;;5.52;100.00;98950.69;5036526;28;20541;-58
2022/02/05 07:29:16;;;;;;;25.47;23.53;;;;;;;5.52;100.00;98957.44;5036236;28;20052;-58
2022/02/05 07:31:55;;;;;;;142.93;130.95;;;;;;;5.47;100.00;98946.41;5034747;28;20043;-56
2022/02/05 07:34:23;;;;;;;140.67;129.47;;;;;;;5.52;100.00;98958.31;5032524;28;20030;-58
2022/02/05 07:36:50;;;;;;;118.50;109.93;;;;;;;5.45;100.00;98964.19;5035611;28;20447;-58
2022/02/05 07:39:18;;;;;;;116.70;107.73;;;;;;;5.47;100.00;98969.31;5038692;28;20041;-58
2022/02/05 07:41:44;;;;;;;41.90;39.40;;;;;;;5.43;100.00;98970.94;5037555;28;20443;-58
2022/02/05 07:44:13;;;;;;;95.27;89.37;;;;;;;5.41;100.00;98967.56;5038662;28;20032;-59
2022/02/05 07:46:43;;;;;;;1.23;1.13;;;;;;;5.39;100.00;98976.84;5034051;28;20033;-58
2022/02/05 07:49:11;;;;;;;19.13;18.07;;;;;;;5.48;99.46;98969.28;5034348;28;20099;-58
2022/02/05 07:51:36;;;;;;;7.70;7.40;;;;;;;5.49;97.98;98970.16;5034691;28;20515;-58
2022/02/05 07:54:02;;;;;;;6.70;6.40;;;;;;;5.47;96.74;98974.38;5034483;28;20029;-57
2022/02/05 07:56:27;;;;;;;7.37;7.03;;;;;;;5.45;94.11;98979.47;5035195;28;20044;-56
2022/02/05 07:58:53;;;;;;;3.97;3.87;;;;;;;5.39;90.74;98978.53;5038508;28;20028;-57
2022/02/05 08:01:18;;;;;;;5.93;5.60;;;;;;;5.45;85.77;98984.53;5035762;28;20039;-57
2022/02/05 08:03:44;;;;;;;8.37;8.00;;;;;;;5.44;82.50;98992.16;5034281;28;20296;-57
2022/02/05 08:06:15;;;;;;;6.53;6.33;;;;;;;5.49;80.01;98991.34;5034047;28;20047;-56
2022/02/05 08:08:41;;;;;;;4.73;4.47;;;;;;;5.60;78.89;99019.38;5038414;28;20108;-58
2022/02/05 08:11:11;;;;;;;5.27;5.00;;;;;;;5.57;75.11;99028.69;5038286;28;20467;-58
2022/02/05 08:13:36;;;;;;;4.80;4.60;;;;;;;5.49;75.11;99000.66;5032885;28;20040;-58
2022/02/05 08:16:13;;;;;;;4.77;4.57;;;;;;;5.45;72.34;99009.97;5033595;28;20037;-58
2022/02/05 08:18:39;;;;;;;0.97;0.70;;;;;;;5.49;71.52;99018.47;5035269;28;20040;-58
2022/02/05 08:21:05;;;;;;;0.80;0.80;;;;;;;5.43;72.39;99028.59;5031166;28;20033;-59
2022/02/05 08:23:33;;;;;;;1.00;1.00;;;;;;;5.45;71.57;99020.13;5030460;28;20059;-58
2022/02/05 08:25:59;;;;;;;0.80;0.80;;;;;;;5.56;70.65;99025.28;5037223;28;20104;-60
2022/02/05 08:28:27;;;;;;;1.27;1.10;;;;;;;5.59;70.59;99019.38;5038798;28;20535;-57
2022/02/05 08:30:52;;;;;;;0.80;0.80;;;;;;;5.59;70.76;99022.78;5033227;28;20609;-57
2022/02/05 08:33:19;;;;;;;1.30;1.20;;;;;;;5.62;69.94;99039.75;5035951;28;20026;-58
2022/02/05 08:35:45;;;;;;;0.87;0.80;;;;;;;5.68;71.04;99042.34;5032946;28;20458;-58
2022/02/05 08:38:10;;;;;;;0.90;0.90;;;;;;;5.52;70.68;99052.38;5035000;28;20487;-57
2022/02/05 08:40:35;;;;;;;2.50;1.10;;;;;;;5.15;70.15;99057.16;5030544;28;20028;-56
2022/02/05 08:43:01;;;;;;;1.67;1.00;;;;;;;4.95;72.27;99052.75;5032427;28;20099;-57
2022/02/05 08:45:26;;;;;;;1.17;1.10;;;;;;;4.89;74.75;99067.06;5036816;28;20051;-57
2022/02/05 08:47:53;;;;;;;1.40;1.10;;;;;;;4.96;74.92;99084.09;5039739;28;20045;-56
2022/02/05 08:50:19;;;;;;;0.97;0.97;;;;;;;4.97;75.71;99071.38;5030748;28;20711;-57
2022/02/05 08:52:44;;;;;;;0.70;0.70;;;;;;;4.95;75.33;99092.53;5031627;28;20542;-57
2022/02/05 08:55:10;;;;;;;1.23;1.03;;;;;;;5.02;75.11;99082.44;5033652;28;20064;-57
2022/02/05 08:57:35;;;;;;;1.30;1.20;;;;;;;4.92;76.04;99084.88;5033578;28;20029;-57
2022/02/05 09:00:11;;;;;;;0.90;0.90;;;;;;;5.00;76.04;99081.59;5029882;28;20486;-56
2022/02/05 09:02:46;;;;;;;1.20;1.10;;;;;;;5.12;79.02;99083.41;5032032;28;20064;-54
2022/02/05 09:05:27;;;;;;;1.35;1.25;;;;;;;5.04;78.09;99082.47;5036607;28;20017;-55
2022/02/05 09:07:52;;;;;;;1.30;1.20;;;;;;;5.11;79.04;99084.22;5037096;28;20044;-57
2022/02/05 09:15:42;;;;;;;97.10;89.20;;;;;;;4.85;80.23;99099.19;4993187;28;20042;-58
2022/02/05 09:18:08;;;;;;;11.07;10.50;;;;;;;4.75;79.68;99107.56;4991245;28;20183;-55
2022/02/05 09:20:33;;;;;;;115.20;102.07;;;;;;;4.77;79.71;99112.63;4975410;28;20050;-58
2022/02/05 09:23:01;;;;;;;139.13;124.63;;;;;;;4.87;79.38;99111.91;4996439;28;20124;-55
2022/02/05 09:25:26;;;;;;;2.20;1.20;;;;;;;4.89;80.64;99120.41;4995723;28;20057;-55
2022/02/05 09:27:52;;;;;;;1.37;1.07;;;;;;;4.98;80.05;99113.72;4991528;28;20056;-56
2022/02/05 09:30:28;;;;;;;8.67;6.83;;;;;;;4.97;78.65;99112.03;4994367;28;20029;-57
2022/02/05 09:32:53;;;;;;;12.77;11.63;;;;;;;5.04;78.60;99112.97;4991620;28;20171;-52
2022/02/05 09:35:19;;;;;;;106.10;95.33;;;;;;;4.95;77.45;99117.94;4991370;28;20117;-54
2022/02/05 09:37:45;;;;;;;132.13;119.90;;;;;;;5.03;77.76;99124.81;4993284;28;20042;-58
2022/02/05 09:40:10;;;;;;;79.93;73.67;;;;;;;5.06;74.98;99124.84;4991168;28;20034;-56
2022/02/05 09:42:46;;;;;;;1.50;1.00;;;;;;;5.18;72.26;99131.72;4993159;28;20109;-56
2022/02/05 09:45:12;;;;;;;4.20;1.23;;;;;;;5.16;68.58;99128.34;4993563;28;20796;-55
2022/02/05 09:47:38;;;;;;;1.00;0.90;;;;;;;5.23;69.49;99142.78;4989585;28;20496;-55
2022/02/05 09:50:04;;;;;;;84.97;77.43;;;;;;;5.23;66.45;99126.69;4989647;28;20045;-56
2022/02/05 09:52:30;;;;;;;111.67;103.50;;;;;;;5.24;65.88;99130.94;5012806;28;20400;-58
2022/02/05 09:54:55;;;;;;;66.90;62.73;;;;;;;5.19;65.43;99148.69;5034612;28;20031;-58
2022/02/05 09:57:21;;;;;;;1.33;1.23;;;;;;;5.28;65.78;99148.78;5031296;28;20039;-58
2022/02/05 09:59:54;;;;;;;0.83;0.83;;;;;;;5.37;64.03;99125.16;5040518;28;20021;-56
2022/02/05 10:02:29;;;;;;;3.80;1.20;;;;;;;5.25;63.35;99169.09;5039805;28;20033;-58
2022/02/05 10:04:58;;;;;;;;;;;;;;;5.33;64.78;99136.97;5034448;28;20060;-55
2022/02/05 10:07:26;;;;;;;12.47;11.87;;;;;;;5.22;63.97;99166.50;5034953;28;19917;-57
2022/02/05 10:09:59;;;;;;;16.07;15.30;;;;;;;5.16;63.06;99124.94;5036943;28;20041;-57
2022/02/05 10:12:26;;;;;;;23.90;22.80;;;;;;;5.24;63.19;99136.03;5035493;28;20148;-57
2022/02/05 10:14:55;;;;;;;9.23;8.83;;;;;;;5.21;63.44;99147.03;5036374;28;20056;-54
2022/02/05 10:17:44;;;;;;;10.63;9.63;;;;;;;5.28;63.82;99127.59;5029679;28;20410;-57
2022/02/05 10:20:12;;;;;;;11.70;10.93;;;;;;;5.58;61.66;99137.19;5033097;28;20442;-55
2022/02/05 10:22:41;;;;;;;13.33;12.27;;;;;;;5.74;62.33;99126.31;5032630;28;20037;-57
2022/02/05 10:25:21;;;;;;;8.57;7.97;;;;;;;6.17;60.67;99128.38;5031227;28;20033;-58
2022/02/05 10:27:49;;;;;;;10.80;10.00;;;;;;;6.45;62.95;99128.53;5032485;28;20285;-57
2022/02/05 10:30:22;;;;;;;7.03;6.63;;;;;;;6.33;62.63;99139.50;5034837;28;20033;-59
2022/02/05 10:33:01;;;;;;;5.87;5.40;;;;;;;6.48;61.57;99128.56;5030244;28;20048;-59
2022/02/05 10:43:13;;;;;;;4.07;3.80;;;;;;;6.24;58.76;99108.88;4978719;28;20838;-62
2022/02/05 10:45:47;;;;;;;4.17;3.33;;;;;;;6.32;60.46;99108.06;4980293;28;20057;-59
2022/02/05 10:48:20;;;;;;;4.13;3.90;;;;;;;6.41;61.45;99114.91;4981282;28;20046;-59
2022/02/05 10:50:49;;;;;;;3.00;0.90;;;;;;;6.06;59.92;99117.28;4980448;28;20057;-57
2022/02/05 10:53:21;;;;;;;1.13;0.87;;;;;;;6.09;59.65;99113.88;4981283;28;20724;-58
2022/02/05 11:05:57;;;;;;;6.70;1.47;;;;;;;5.60;60.67;99136.38;4986622;28;20109;-57
2022/02/05 11:08:24;;;;;;;1.60;1.40;;;;;;;5.67;61.46;99132.19;4985455;28;20101;-58
2022/02/05 11:17:01;;;;;;;1.30;1.20;;;;;;;5.63;60.29;99115.22;4984683;28;20096;-55
2022/02/05 11:18:58;;;;;;;0.90;0.90;;;;;;;5.81;59.99;99130.63;5029481;28;20056;-57
2022/02/05 11:21:26;;;;;;;2.47;1.00;;;;;;;5.76;60.48;99157.72;5033548;28;20048;-58
2022/02/05 11:23:59;;;;;;;2.13;1.10;;;;;;;5.63;60.04;99138.09;5034969;28;20567;-58
2022/02/05 11:26:25;;;;;;;1.30;1.20;;;;;;;5.88;61.35;99142.59;5035661;28;20090;-57
2022/02/05 11:28:58;;;;;;;1.70;1.10;;;;;;;5.98;58.53;99159.63;5035293;28;20111;-56
2022/02/05 11:31:39;;;;;;;2.00;1.30;;;;;;;6.05;58.64;99140.16;5032174;28;20025;-56
2022/02/05 11:34:14;;;;;;;3.83;1.00;;;;;;;6.21;59.27;99130.09;5035358;28;20030;-58
2022/02/05 11:36:59;;;;;;;2.00;0.80;;;;;;;6.30;59.80;99130.16;5034980;28;20129;-59
2022/02/05 11:39:25;;;;;;;4.15;1.40;;;;;;;6.12;59.09;99135.13;5024208;28;20087;-57
2022/02/05 11:41:51;;;;;;;2.10;1.33;;;;;;;6.16;59.27;99118.16;5031613;28;20029;-57
2022/02/05 11:44:20;;;;;;;1.50;1.10;;;;;;;6.19;59.51;99134.34;5035156;28;20069;-58
2022/02/05 11:47:03;;;;;;;1.57;0.90;;;;;;;6.12;59.45;99139.34;5034719;28;20037;-56
2022/02/05 11:49:58;;;;;;;0.90;0.90;;;;;;;6.14;60.04;99135.13;5032740;28;20040;-58
2022/02/05 11:52:35;;;;;;;3.17;1.10;;;;;;;6.27;59.79;99142.88;5018219;28;20040;-58
2022/02/05 11:55:12;;;;;;;1.83;1.27;;;;;;;6.36;59.72;99135.28;5035359;28;20064;-57
2022/02/05 11:57:44;;;;;;;1.20;1.07;;;;;;;6.65;59.57;99144.78;5033247;28;20037;-58
2022/02/05 12:00:12;;;;;;;1.67;1.27;;;;;;;6.57;58.87;99146.44;5033195;28;20092;-54
2022/02/05 12:02:41;;;;;;;1.70;0.97;;;;;;;6.46;58.72;99143.81;5037244;28;20124;-56
2022/02/05 12:05:10;;;;;;;1.63;0.90;;;;;;;6.26;59.98;99153.88;5034726;28;20494;-57
2022/02/05 12:07:36;;;;;;;2.20;1.10;;;;;;;6.45;60.52;99141.28;5032672;28;20041;-58
2022/02/05 12:10:21;;;;;;;0.90;0.90;;;;;;;6.18;59.60;99152.13;5032468;28;20056;-55
2022/02/05 12:12:50;;;;;;;2.63;1.50;;;;;;;6.11;59.92;99152.94;5040038;28;20036;-58
2022/02/05 12:15:16;;;;;;;1.33;1.20;;;;;;;6.09;59.67;99168.19;5034841;28;20038;-54
2022/02/05 12:20:50;;;;;;;1.23;0.87;;;;;;;6.26;61.08;99156.44;5030629;28;20079;-55
2022/02/05 12:25:56;;;;;;;2.93;1.20;;;;;;;6.10;60.32;99146.13;5030465;28;20049;-58
2022/02/05 12:28:45;;;;;;;2.07;1.03;;;;;;;6.05;60.98;99145.25;5027326;28;20462;-60
2022/02/05 12:31:16;;;;;;;1.07;1.03;;;;;;;6.01;60.67;99144.38;5028838;28;20435;-60
2022/02/05 12:33:43;;;;;;;3.00;1.43;;;;;;;6.00;60.83;99131.63;5030765;28;20052;-59
2022/02/05 12:36:08;;;;;;;2.87;1.07;;;;;;;5.78;60.67;99140.75;5027818;28;20032;-58
2022/02/05 12:38:53;;;;;;;1.83;1.30;;;;;;;5.78;62.12;99145.84;5025937;28;20443;-58
2022/02/05 12:41:21;;;;;;;1.10;1.00;;;;;;;5.76;62.10;99142.47;5030410;28;20034;-59
2022/02/05 12:43:53;;;;;;;1.60;1.10;;;;;;;5.79;63.01;99143.31;5029975;28;20069;-59
2022/02/05 12:46:21;;;;;;;2.03;1.10;;;;;;;5.74;63.26;99151.75;5026168;28;20036;-58
2022/02/05 12:48:52;;;;;;;2.33;1.23;;;;;;;5.72;63.13;99141.59;5027182;28;20049;-60
2022/02/05 12:51:17;;;;;;;0.90;0.90;;;;;;;5.70;63.14;99140.69;5029789;28;20089;-59
2022/02/05 12:53:43;;;;;;;1.50;0.90;;;;;;;5.61;63.64;99137.22;5026841;28;20041;-60
2022/02/05 12:56:20;;;;;;;1.90;0.97;;;;;;;5.72;64.38;99136.50;5026428;28;20523;-60
2022/02/05 12:58:53;;;;;;;2.97;1.07;;;;;;;5.69;64.17;99135.59;5028329;28;20038;-59
2022/02/05 13:01:19;;;;;;;1.77;1.13;;;;;;;5.61;63.93;99145.72;5029660;28;20022;-59
2022/02/05 13:03:44;;;;;;;2.13;1.07;;;;;;;5.64;63.79;99127.94;5009394;28;20045;-58
2022/02/05 13:06:21;;;;;;;0.97;0.93;;;;;;;5.82;64.76;99125.53;5024934;28;20080;-59
2022/02/05 13:08:49;;;;;;;32.57;30.57;;;;;;;5.78;64.93;99128.03;5016798;28;20025;-59
2022/02/05 13:11:29;;;;;;;56.10;53.27;;;;;;;5.72;65.15;99135.63;5030364;28;20036;-59
2022/02/05 13:13:54;;;;;;;39.67;37.70;;;;;;;5.66;66.20;99135.56;5026026;28;20415;-59
2022/02/05 13:16:25;;;;;;;12.23;11.67;;;;;;;5.57;64.99;99121.09;5025039;28;20033;-59
2022/02/05 13:19:16;;;;;;;30.93;29.57;;;;;;;5.53;65.13;99130.38;5029842;28;20044;-58
2022/02/05 13:35:55;;;;;;;10.73;10.17;;;;;;;5.47;64.43;99152.38;4937531;29;20041;-57
2022/02/05 13:38:21;;;;;;;13.73;12.70;;;;;;;5.41;65.11;99154.84;4941299;29;20113;-56
2022/02/05 13:40:50;;;;;;;12.40;11.43;;;;;;;5.41;65.52;99155.69;4943651;29;20070;-57
2022/02/05 13:43:19;;;;;;;9.07;8.60;;;;;;;5.52;64.77;99150.69;4941679;29;20399;-57
2022/02/05 13:45:45;;;;;;;7.77;7.47;;;;;;;5.67;64.54;99167.81;4945357;29;20125;-59
2022/02/05 13:48:23;;;;;;;8.53;8.03;;;;;;;5.69;64.78;99156.78;4934556;29;20134;-58
2022/02/05 13:50:48;;;;;;;8.77;7.97;;;;;;;5.72;64.57;99148.34;4924350;29;20095;-57
2022/02/05 13:53:14;;;;;;;1.40;1.30;;;;;;;5.67;64.97;99150.84;4923581;29;20043;-57
2022/02/05 13:55:41;;;;;;;2.77;1.13;;;;;;;5.71;65.32;99152.59;4925269;29;20585;-59
2022/02/05 13:58:14;;;;;;;1.63;0.97;;;;;;;5.76;64.88;99145.84;4922316;29;20039;-58
2022/02/05 14:00:49;;;;;;;1.13;1.13;;;;;;;5.89;65.21;99146.84;4919988;29;20664;-58
2022/02/05 14:03:27;;;;;;;8.60;8.10;;;;;;;5.86;64.35;99149.31;4915817;29;20258;-58
2022/02/05 14:06:05;;;;;;;8.90;8.40;;;;;;;5.79;64.21;99157.75;4920617;28;20507;-58
2022/02/05 14:08:43;;;;;;;25.23;23.27;;;;;;;5.85;65.20;99148.47;5018220;28;20029;-57
2022/02/05 14:11:09;;;;;;;23.90;22.77;;;;;;;5.91;64.08;99155.31;5014448;28;20108;-58
2022/02/05 14:13:37;;;;;;;29.33;28.07;;;;;;;5.89;64.63;99168.06;5013542;28;20152;-57
2022/02/05 14:16:04;;;;;;;25.43;24.10;;;;;;;5.84;63.52;99151.84;5016693;28;20040;-58
2022/02/05 14:18:44;;;;;;;20.57;19.27;;;;;;;5.93;64.34;99164.69;5018622;28;20157;-57
2022/02/05 14:21:10;;;;;;;28.30;26.90;;;;;;;5.94;63.63;99161.28;5013413;28;20527;-57
2022/02/05 14:23:35;;;;;;;17.30;16.53;;;;;;;5.79;63.93;99155.19;5015821;28;20040;-58
2022/02/05 14:28:51;;;;;;;5.20;4.90;;;;;;;5.89;63.09;99162.09;5016319;28;20241;-58
2022/02/05 14:34:09;;;;;;;37.33;23.10;;;;;;;5.77;63.00;99152.63;5015597;28;20108;-57
2022/02/05 14:42:07;;;;;;;37.10;23.23;;;;;;;5.78;62.98;99161.09;5012028;28;20423;-60
2022/02/05 14:44:32;;;;;;;30.33;17.87;;;;;;;5.76;63.29;99162.81;4992329;28;20441;-59